Time;durP1;ratioP1;P1;durP2;ratioP2;P2;SDS_P1;SDS_P2;PMS_P1;PMS_P2;Temp;Humidity;BMP_temperature;BMP_pressure;BME280_temperature;BME280_humidity;BME280_pressure;Samples;Min_cycle;Max_cycle;Signal;HPM_P1;HPM_P2
2023/04/29 00:01:17;;;;;;;1.00;0.90;;;21.50;63.70;;;;;;4894310;28;90669;-91
2023/04/29 00:03:43;;;;;;;1.30;1.20;;;21.50;64.40;;;;;;4900542;28;89847;-89
2023/04/29 00:06:10;;;;;;;1.95;1.23;;;21.50;63.60;;;;;;4900538;28;90981;-90
2023/04/29 00:08:36;;;;;;;1.52;1.30;;;21.50;63.50;;;;;;4902658;28;87452;-89
2023/04/29 00:11:02;;;;;;;2.00;1.40;;;21.50;63.50;;;;;;4916891;28;90313;-90
2023/04/29 00:13:28;;;;;;;2.45;1.35;;;21.50;63.50;;;;;;4916975;28;91130;-91
2023/04/29 00:15:53;;;;;;;1.92;1.33;;;21.50;63.50;;;;;;4917287;28;91107;-89
2023/04/29 00:18:19;;;;;;;2.70;1.13;;;21.50;63.60;;;;;;4900608;28;87171;-91
2023/04/29 00:20:45;;;;;;;1.30;1.05;;;21.50;63.70;;;;;;4902425;28;87485;-89
2023/04/29 00:23:10;;;;;;;1.98;1.30;;;21.50;63.70;;;;;;4907795;28;91472;-91
2023/04/29 00:25:37;;;;;;;1.05;0.95;;;21.50;63.60;;;;;;4900916;28;89148;-90
2023/04/29 00:28:04;;;;;;;1.58;1.23;;;21.40;63.60;;;;;;4902567;28;88216;-89
2023/04/29 00:30:31;;;;;;;1.45;1.13;;;21.50;63.50;;;;;;4908866;28;89195;-89
2023/04/29 00:32:57;;;;;;;1.63;1.17;;;21.50;63.60;;;;;;4902156;28;87669;-90
2023/04/29 00:35:22;;;;;;;1.42;1.33;;;21.40;63.60;;;;;;4907924;28;90663;-90
2023/04/29 00:37:48;;;;;;;1.55;1.45;;;21.40;63.60;;;;;;4916865;28;87836;-91
2023/04/29 00:40:15;;;;;;;2.13;1.38;;;21.40;63.60;;;;;;4902866;28;87397;-89
2023/04/29 00:42:40;;;;;;;1.30;1.20;;;21.40;63.60;;;;;;4900936;28;92054;-90
2023/04/29 00:45:10;;;;;;;1.95;1.20;;;21.40;63.60;;;;;;4901215;28;88335;-91
2023/04/29 00:47:37;;;;;;;1.67;1.10;;;21.40;63.70;;;;;;4901108;28;87758;-91
2023/04/29 00:50:05;;;;;;;1.50;1.30;;;21.30;64.20;;;;;;4917260;28;87757;-89
2023/04/29 00:52:31;;;;;;;1.63;1.10;;;21.30;63.60;;;;;;4915086;28;93004;-90
2023/04/29 00:54:58;;;;;;;1.58;1.33;;;21.30;63.60;;;;;;4902539;28;89109;-89
2023/04/29 00:57:27;;;;;;;1.48;1.20;;;21.30;63.70;;;;;;4907858;28;87483;-89
2023/04/29 00:59:54;;;;;;;2.05;1.20;;;21.30;63.80;;;;;;4899496;28;90971;-89
2023/04/29 01:02:20;;;;;;;1.70;1.50;;;21.30;63.80;;;;;;4899334;28;91850;-90
2023/04/29 01:04:46;;;;;;;1.40;1.30;;;21.30;63.60;;;;;;4898687;28;89965;-90
2023/04/29 01:07:17;;;;;;;1.45;1.35;;;21.30;63.60;;;;;;4902792;28;87194;-89
2023/04/29 01:10:23;;;;;;;1.88;1.45;;;21.30;63.60;;;;;;4916030;28;90804;-91
2023/04/29 01:13:10;;;;;;;1.88;1.30;;;21.30;63.60;;;;;;4845070;29;96081;-90
2023/04/29 01:16:04;;;;;;;2.90;1.58;;;21.30;63.50;;;;;;4880368;28;91773;-90
2023/04/29 01:18:40;;;;;;;2.83;1.67;;;21.30;63.50;;;;;;4882673;28;88436;-90
2023/04/29 01:21:05;;;;;;;2.25;1.70;;;21.30;63.50;;;;;;4880216;28;89293;-89
2023/04/29 01:23:31;;;;;;;2.25;1.60;;;21.30;63.40;;;;;;4882111;28;88367;-89
2023/04/29 01:25:57;;;;;;;1.50;1.40;;;21.20;63.50;;;;;;4882487;28;88372;-91
2023/04/29 01:28:51;;;;;;;2.70;1.60;;;21.20;63.40;;;;;;4880984;28;87349;-90
2023/04/29 01:31:42;;;;;;;1.95;1.60;;;21.30;63.50;;;;;;4882458;28;87630;-89
2023/04/29 01:34:17;;;;;;;1.77;1.63;;;21.20;63.30;;;;;;4926317;28;96516;-90
2023/04/29 01:37:17;;;;;;;2.00;1.55;;;21.30;63.60;;;;;;4896909;28;91169;-90
2023/04/29 01:39:48;;;;;;;;;;;21.20;63.50;;;;;;4894891;28;87374;-90
2023/04/29 01:42:24;;;;;;;1.77;1.30;;;21.20;63.40;;;;;;4889760;28;89477;-89
2023/04/29 01:44:53;;;;;;;1.52;1.42;;;21.20;63.60;;;;;;4879510;28;93339;-89
2023/04/29 01:47:20;;;;;;;3.28;1.63;;;21.20;63.50;;;;;;4888231;28;91849;-91
2023/04/29 01:49:46;;;;;;;1.40;1.20;;;21.20;63.60;;;;;;4887952;28;87646;-90
2023/04/29 01:52:12;;;;;;;1.70;1.50;;;21.20;63.60;;;;;;4881306;28;90993;-90
2023/04/29 01:54:38;;;;;;;3.63;1.67;;;21.10;63.50;;;;;;4880452;28;90267;-91
2023/04/29 01:57:03;;;;;;;2.80;1.80;;;21.20;63.50;;;;;;4896572;28;91169;-90
2023/04/29 01:59:29;;;;;;;1.63;1.30;;;21.10;63.50;;;;;;4880073;28;87404;-91
2023/04/29 02:01:57;;;;;;;1.40;1.27;;;21.10;63.50;;;;;;4882720;28;86824;-89
2023/04/29 02:04:27;;;;;;;3.58;1.95;;;21.10;63.50;;;;;;4881185;28;87368;-89
2023/04/29 02:06:53;;;;;;;1.92;1.65;;;21.10;63.80;;;;;;4887621;28;91152;-90
2023/04/29 02:09:18;;;;;;;1.92;1.67;;;21.10;63.60;;;;;;4895248;28;88519;-90
2023/04/29 02:11:44;;;;;;;2.17;1.77;;;21.10;63.70;;;;;;4878948;28;89274;-89
2023/04/29 02:14:11;;;;;;;2.30;1.52;;;21.10;63.80;;;;;;4880750;28;92031;-90
2023/04/29 02:16:37;;;;;;;3.00;1.75;;;21.10;63.80;;;;;;4880053;28;91178;-90
2023/04/29 02:19:02;;;;;;;2.70;1.73;;;21.10;63.70;;;;;;4888941;28;87337;-90
2023/04/29 02:21:28;;;;;;;1.88;1.50;;;21.00;63.70;;;;;;4880957;28;88999;-90
2023/04/29 02:23:54;;;;;;;1.98;1.60;;;21.10;63.90;;;;;;4912677;28;90906;-91
2023/04/29 02:26:20;;;;;;;1.70;1.60;;;21.00;63.70;;;;;;4880022;28;89312;-89
2023/04/29 02:28:46;;;;;;;1.65;1.40;;;21.10;63.70;;;;;;4880113;28;87507;-91
2023/04/29 02:31:12;;;;;;;1.83;1.50;;;21.00;63.70;;;;;;4881813;28;88237;-90
2023/04/29 02:33:37;;;;;;;2.25;1.80;;;21.00;63.80;;;;;;4887815;28;91395;-90
2023/04/29 02:36:03;;;;;;;2.60;1.80;;;21.00;63.70;;;;;;4886327;28;91039;-90
2023/04/29 02:38:29;;;;;;;2.25;1.40;;;21.00;63.70;;;;;;4881637;28;86905;-90
2023/04/29 02:40:55;;;;;;;1.60;1.42;;;21.00;63.80;;;;;;4895953;28;90315;-92
2023/04/29 02:43:21;;;;;;;3.45;1.85;;;21.00;63.90;;;;;;4880635;28;91157;-90
2023/04/29 02:45:46;;;;;;;2.13;1.70;;;21.00;63.80;;;;;;4880654;28;91508;-91
2023/04/29 02:48:12;;;;;;;2.42;1.92;;;21.00;63.70;;;;;;4896476;28;86956;-90
2023/04/29 02:50:37;;;;;;;1.75;1.55;;;21.00;63.80;;;;;;4882243;28;87248;-91
2023/04/29 02:53:03;;;;;;;2.33;1.77;;;20.90;63.70;;;;;;4881365;28;87617;-90
2023/04/29 02:55:29;;;;;;;1.60;1.50;;;21.00;63.70;;;;;;4897411;28;94814;-88
2023/04/29 02:57:54;;;;;;;1.70;1.60;;;20.90;63.60;;;;;;4901122;28;88392;-90
2023/04/29 03:00:20;;;;;;;2.53;1.83;;;21.00;63.50;;;;;;4900151;28;89366;-90
2023/04/29 03:02:46;;;;;;;2.22;1.77;;;21.00;63.70;;;;;;4889893;28;89032;-89
2023/04/29 03:05:12;;;;;;;2.80;2.20;;;20.90;63.60;;;;;;4888116;28;87994;-90
2023/04/29 03:07:37;;;;;;;2.00;1.60;;;20.90;63.60;;;;;;4887911;28;87409;-89
2023/04/29 03:10:04;;;;;;;2.17;1.70;;;20.90;63.70;;;;;;4880497;28;90525;-89
2023/04/29 03:12:29;;;;;;;2.00;1.70;;;21.00;63.80;;;;;;4903571;28;92847;-89
2023/04/29 03:14:55;;;;;;;2.10;1.90;;;20.90;63.70;;;;;;4924189;28;91439;-89
2023/04/29 03:17:21;;;;;;;3.03;1.92;;;20.90;63.60;;;;;;4916846;28;86988;-89
2023/04/29 03:19:47;;;;;;;2.40;1.73;;;20.90;63.80;;;;;;4894881;28;88922;-89
2023/04/29 03:22:12;;;;;;;2.13;1.92;;;20.90;63.80;;;;;;4894776;28;93294;-91
2023/04/29 03:24:38;;;;;;;2.22;1.77;;;20.90;63.70;;;;;;4878913;28;89432;-89
2023/04/29 03:27:04;;;;;;;2.17;1.85;;;20.90;63.70;;;;;;4895099;28;87043;-90
2023/04/29 03:29:30;;;;;;;2.10;1.60;;;20.90;63.70;;;;;;4878721;28;90084;-89
2023/04/29 03:31:56;;;;;;;1.80;1.67;;;20.90;63.60;;;;;;4878955;28;91739;-90
2023/04/29 03:34:23;;;;;;;2.25;1.90;;;20.90;63.50;;;;;;4894420;28;90406;-90
2023/04/29 03:36:50;;;;;;;2.30;1.70;;;20.90;63.50;;;;;;4881611;28;86911;-88
2023/04/29 03:39:16;;;;;;;2.30;2.08;;;20.90;63.50;;;;;;4880790;28;87409;-89
2023/04/29 03:41:41;;;;;;;1.95;1.70;;;20.90;63.60;;;;;;4878681;28;91551;-89
2023/04/29 03:44:10;;;;;;;1.90;1.63;;;20.80;63.50;;;;;;4888909;28;91170;-89
2023/04/29 03:46:35;;;;;;;2.60;1.88;;;20.80;63.50;;;;;;4879395;28;88538;-88
2023/04/29 03:49:01;;;;;;;2.85;1.98;;;20.80;63.40;;;;;;4881091;28;87085;-90
2023/04/29 03:51:27;;;;;;;2.47;2.13;;;20.80;63.50;;;;;;4878976;28;90707;-89
2023/04/29 03:53:55;;;;;;;2.30;2.00;;;20.80;63.30;;;;;;4879654;28;88590;-89
2023/04/29 03:56:21;;;;;;;2.00;1.80;;;20.80;63.50;;;;;;4880411;28;87578;-91
2023/04/29 03:58:47;;;;;;;2.70;1.98;;;20.80;63.30;;;;;;4879693;28;89200;-90
2023/04/29 04:01:14;;;;;;;3.28;2.05;;;20.80;63.40;;;;;;4879824;28;91367;-90
2023/04/29 04:03:39;;;;;;;2.40;2.20;;;20.80;63.50;;;;;;4879838;28;86628;-89
2023/04/29 04:06:07;;;;;;;2.08;1.85;;;20.80;63.60;;;;;;4895127;28;87338;-88
2023/04/29 04:08:33;;;;;;;2.60;2.20;;;20.80;63.40;;;;;;4885531;28;90386;-90
2023/04/29 04:11:02;;;;;;;2.90;2.25;;;20.80;63.50;;;;;;4884375;28;89329;-90
2023/04/29 04:13:30;;;;;;;3.77;2.30;;;20.80;63.30;;;;;;4911667;28;91800;-90
2023/04/29 04:15:56;;;;;;;2.10;1.90;;;20.80;63.40;;;;;;4879375;28;87975;-89
2023/04/29 04:18:22;;;;;;;3.10;2.20;;;20.80;63.40;;;;;;4878707;28;88944;-90
2023/04/29 04:20:47;;;;;;;2.95;2.17;;;20.70;63.30;;;;;;4877561;28;89943;-90
2023/04/29 04:23:14;;;;;;;2.92;2.47;;;20.80;63.20;;;;;;4879830;28;88290;-89
2023/04/29 04:25:46;;;;;;;3.08;2.17;;;20.80;63.30;;;;;;4894149;28;87277;-89
2023/04/29 04:28:12;;;;;;;2.25;2.05;;;20.80;63.30;;;;;;4895216;28;89690;-89
2023/04/29 04:30:40;;;;;;;2.67;2.25;;;20.70;63.30;;;;;;4893536;28;90596;-90
2023/04/29 04:33:06;;;;;;;3.20;2.00;;;20.70;63.10;;;;;;4892166;28;89917;-91
2023/04/29 04:35:31;;;;;;;2.97;2.38;;;20.70;63.30;;;;;;4915951;28;87881;-90
2023/04/29 04:37:58;;;;;;;2.22;2.03;;;20.70;63.20;;;;;;4916652;28;90579;-91
2023/04/29 04:40:26;;;;;;;2.20;1.95;;;20.70;63.20;;;;;;4902237;28;87371;-89
2023/04/29 04:42:52;;;;;;;2.92;2.30;;;20.70;63.50;;;;;;4908789;28;89805;-90
2023/04/29 04:45:18;;;;;;;3.17;2.47;;;20.70;63.40;;;;;;4900877;28;87459;-90
2023/04/29 04:47:43;;;;;;;2.40;2.20;;;20.70;63.50;;;;;;4916261;28;89426;-89
2023/04/29 04:50:09;;;;;;;2.40;2.20;;;20.70;63.30;;;;;;4915741;28;91664;-89
2023/04/29 04:52:35;;;;;;;2.90;2.45;;;20.70;63.30;;;;;;4900588;28;90338;-90
2023/04/29 04:55:01;;;;;;;2.45;2.13;;;20.70;63.20;;;;;;4901212;28;87389;-89
2023/04/29 04:57:27;;;;;;;2.45;2.25;;;20.70;63.30;;;;;;4900166;28;90548;-89
2023/04/29 04:59:53;;;;;;;3.10;2.35;;;20.70;64.20;;;;;;4899936;28;92468;-90
2023/04/29 05:02:18;;;;;;;2.60;2.40;;;20.70;63.40;;;;;;4901275;28;90791;-89
2023/04/29 05:04:44;;;;;;;3.45;2.85;;;20.70;63.50;;;;;;4901978;28;87205;-90
2023/04/29 05:07:10;;;;;;;2.53;2.33;;;20.70;63.70;;;;;;4917769;28;88090;-90
2023/04/29 05:09:36;;;;;;;2.38;2.17;;;20.70;63.60;;;;;;4899761;28;91232;-90
2023/04/29 05:12:02;;;;;;;2.72;2.35;;;20.70;63.40;;;;;;4901178;28;88294;-88
2023/04/29 05:14:28;;;;;;;2.45;2.25;;;20.70;63.40;;;;;;4899437;28;87331;-90
2023/04/29 05:17:00;;;;;;;3.08;2.40;;;20.70;63.40;;;;;;4900925;28;86249;-90
2023/04/29 05:19:28;;;;;;;3.53;2.60;;;20.60;63.20;;;;;;4901308;28;88663;-89
2023/04/29 05:21:54;;;;;;;3.13;2.40;;;20.70;63.40;;;;;;4916552;28;91308;-89
2023/04/29 05:24:20;;;;;;;2.65;2.30;;;20.70;64.10;;;;;;4899603;28;88096;-89
2023/04/29 05:26:45;;;;;;;2.63;2.25;;;20.60;63.30;;;;;;4899307;28;89603;-89
2023/04/29 05:29:11;;;;;;;2.85;2.50;;;20.60;63.20;;;;;;4902145;28;87726;-90
2023/04/29 05:31:37;;;;;;;4.25;2.50;;;20.60;63.10;;;;;;4901855;28;87960;-89
2023/04/29 05:34:06;;;;;;;4.13;3.00;;;20.60;63.30;;;;;;4917742;28;87278;-90
2023/04/29 05:36:32;;;;;;;2.85;2.42;;;20.60;63.30;;;;;;4916637;28;90299;-89
2023/04/29 05:38:57;;;;;;;3.25;2.75;;;20.60;63.10;;;;;;4901538;28;87271;-89
2023/04/29 05:41:23;;;;;;;3.40;3.10;;;20.60;63.10;;;;;;4915794;28;90858;-90
2023/04/29 05:43:50;;;;;;;3.63;3.00;;;20.60;63.30;;;;;;4902062;28;87491;-90
2023/04/29 05:46:16;;;;;;;3.80;2.70;;;20.60;63.30;;;;;;4899505;28;89515;-90
2023/04/29 05:48:42;;;;;;;3.97;3.20;;;20.60;63.20;;;;;;4916056;28;92323;-90
2023/04/29 05:51:08;;;;;;;3.00;2.67;;;20.60;63.20;;;;;;4900846;28;89838;-90
2023/04/29 05:53:35;;;;;;;3.15;2.85;;;20.60;63.30;;;;;;4916978;28;86960;-89
2023/04/29 05:56:05;;;;;;;3.50;3.20;;;20.60;63.30;;;;;;4902798;28;86884;-90
2023/04/29 05:58:31;;;;;;;4.47;3.50;;;20.60;63.20;;;;;;4900681;28;89933;-90
2023/04/29 06:00:57;;;;;;;4.18;2.80;;;20.60;63.00;;;;;;4903370;28;87450;-93
2023/04/29 06:03:23;;;;;;;3.08;2.75;;;20.60;62.90;;;;;;4903731;28;87225;-89
2023/04/29 06:05:49;;;;;;;3.30;3.00;;;20.70;62.70;;;;;;4917879;28;90398;-89
2023/04/29 06:08:14;;;;;;;3.63;3.10;;;20.70;62.70;;;;;;4916599;28;90310;-90
2023/04/29 06:10:40;;;;;;;4.22;3.45;;;20.70;63.00;;;;;;4901606;28;87427;-91
2023/04/29 06:13:06;;;;;;;3.50;2.97;;;20.70;62.80;;;;;;4918143;28;88065;-90
2023/04/29 06:15:32;;;;;;;4.70;4.18;;;20.80;63.00;;;;;;4903454;28;87020;-92
2023/04/29 06:17:57;;;;;;;4.43;3.42;;;20.90;62.60;;;;;;4901675;28;89557;-89
2023/04/29 06:20:23;;;;;;;4.75;3.67;;;20.90;62.40;;;;;;4917281;28;89974;-88
2023/04/29 06:22:49;;;;;;;4.30;3.75;;;21.00;62.50;;;;;;4903327;28;87463;-92
2023/04/29 06:25:15;;;;;;;4.05;3.65;;;21.10;62.60;;;;;;4919246;28;89086;-90
2023/04/29 06:27:41;;;;;;;6.25;4.10;;;21.00;62.30;;;;;;4903450;28;88482;-90
2023/04/29 06:30:38;;;;;;;5.57;3.92;;;21.00;63.00;;;;;;4904935;28;88300;-91
2023/04/29 06:33:03;;;;;;;7.88;4.20;;;21.00;63.30;;;;;;4910063;28;87382;-90
2023/04/29 06:35:29;;;;;;;6.25;4.00;;;21.00;63.30;;;;;;4917280;28;88509;-90
2023/04/29 06:37:55;;;;;;;6.22;4.30;;;21.00;63.60;;;;;;4900465;28;90744;-90
2023/04/29 06:40:21;;;;;;;8.23;4.28;;;20.90;63.70;;;;;;4917776;28;90034;-90
2023/04/29 06:42:46;;;;;;;6.72;4.35;;;20.80;63.70;;;;;;4918640;28;87323;-90
2023/04/29 06:45:12;;;;;;;5.97;4.38;;;20.80;64.00;;;;;;4906488;28;88876;-90
2023/04/29 06:47:38;;;;;;;7.03;4.50;;;20.80;64.00;;;;;;4904762;28;89140;-91
2023/04/29 06:50:04;;;;;;;4.80;4.20;;;20.80;64.00;;;;;;4897484;28;90047;-90
2023/04/29 06:52:30;;;;;;;6.53;4.00;;;20.80;64.20;;;;;;4898037;28;86855;-91
2023/04/29 06:54:56;;;;;;;5.00;4.07;;;20.80;64.30;;;;;;4914672;28;90069;-91
2023/04/29 06:57:22;;;;;;;7.15;4.60;;;20.80;64.80;;;;;;4907325;28;92144;-90
2023/04/29 06:59:48;;;;;;;7.55;4.22;;;20.90;63.80;;;;;;4899700;28;91383;-91
2023/04/29 07:02:13;;;;;;;5.18;4.20;;;21.00;63.50;;;;;;4916718;28;88096;-91
2023/04/29 07:04:39;;;;;;;6.70;5.03;;;20.90;63.80;;;;;;4915019;28;89021;-92
2023/04/29 07:07:05;;;;;;;9.02;5.05;;;20.90;63.80;;;;;;4915566;28;91271;-91
2023/04/29 07:09:31;;;;;;;7.63;4.78;;;20.90;64.00;;;;;;4898639;28;91135;-92
2023/04/29 07:11:57;;;;;;;8.98;5.20;;;20.90;64.10;;;;;;4899285;28;87281;-91
2023/04/29 07:14:22;;;;;;;9.10;5.03;;;20.80;64.10;;;;;;4898350;28;90992;-89
2023/04/29 07:16:53;;;;;;;8.15;5.47;;;20.80;64.20;;;;;;4901394;28;90362;-88
2023/04/29 07:19:18;;;;;;;10.35;5.22;;;20.90;64.30;;;;;;4893636;28;91434;-90
2023/04/29 07:21:44;;;;;;;10.00;6.43;;;20.90;63.80;;;;;;4913328;28;87473;-86
2023/04/29 07:24:10;;;;;;;9.45;6.03;;;20.90;63.90;;;;;;4885417;28;86851;-89
2023/04/29 07:26:36;;;;;;;14.48;6.60;;;20.90;64.00;;;;;;4894881;28;89490;-88
2023/04/29 07:29:01;;;;;;;14.38;6.07;;;20.90;63.70;;;;;;4915691;28;90598;-89
2023/04/29 07:31:30;;;;;;;12.60;6.15;;;20.80;63.90;;;;;;4886150;28;87405;-90
2023/04/29 07:33:56;;;;;;;14.18;6.38;;;21.00;63.80;;;;;;4882376;28;87371;-89
2023/04/29 07:36:22;;;;;;;11.77;6.00;;;21.00;63.90;;;;;;4888299;28;91704;-91
2023/04/29 07:38:48;;;;;;;12.55;6.53;;;21.00;63.90;;;;;;4878692;28;91458;-88
2023/04/29 07:41:17;;;;;;;9.88;5.95;;;21.00;63.80;;;;;;4880198;28;87441;-89
2023/04/29 07:43:42;;;;;;;14.45;5.97;;;21.00;64.00;;;;;;4894248;28;88001;-88
2023/04/29 07:46:08;;;;;;;8.57;5.80;;;21.10;64.10;;;;;;4879733;28;89653;-89
2023/04/29 07:48:38;;;;;;;14.60;6.35;;;21.10;64.00;;;;;;4830122;28;88787;-88
2023/04/29 07:51:05;;;;;;;10.15;5.90;;;21.20;63.80;;;;;;4881865;28;88378;-89
2023/04/29 07:53:31;;;;;;;14.27;6.25;;;21.30;63.30;;;;;;4895417;28;90515;-91
2023/04/29 07:55:56;;;;;;;8.07;5.35;;;21.40;63.20;;;;;;4880424;28;90044;-89
2023/04/29 07:58:22;;;;;;;8.90;5.63;;;21.50;63.10;;;;;;4897114;28;90757;-92
2023/04/29 08:00:48;;;;;;;16.63;6.05;;;21.60;63.70;;;;;;4891949;28;87539;-92
2023/04/29 08:03:13;;;;;;;10.95;5.97;;;21.60;63.00;;;;;;4882537;28;87870;-92
2023/04/29 08:05:39;;;;;;;12.13;5.68;;;21.60;63.10;;;;;;4878467;28;90329;-92
2023/04/29 08:08:05;;;;;;;11.90;5.78;;;21.60;63.00;;;;;;4872917;28;87466;-91
2023/04/29 08:10:31;;;;;;;11.90;5.93;;;21.60;62.80;;;;;;4879638;28;87598;-92
2023/04/29 08:12:57;;;;;;;8.70;5.88;;;21.60;63.00;;;;;;4882876;28;86979;-93
2023/04/29 08:15:22;;;;;;;9.95;5.65;;;21.50;63.40;;;;;;4880677;28;91122;-92
2023/04/29 08:17:48;;;;;;;9.55;5.72;;;21.40;63.50;;;;;;4883294;28;87345;-92
2023/04/29 08:20:14;;;;;;;13.20;6.43;;;21.50;63.50;;;;;;4897174;28;87606;-92
2023/04/29 08:22:40;;;;;;;9.07;5.57;;;21.40;63.40;;;;;;4881927;28;89018;-92
2023/04/29 08:25:06;;;;;;;8.55;5.03;;;21.40;63.60;;;;;;4889768;28;89258;-91
2023/04/29 08:27:32;;;;;;;9.23;5.65;;;21.30;63.80;;;;;;4882511;28;88252;-91
2023/04/29 08:29:58;;;;;;;11.60;5.57;;;21.30;63.80;;;;;;4882866;28;87591;-89
2023/04/29 08:32:24;;;;;;;10.98;6.57;;;21.40;63.30;;;;;;4882269;28;89572;-95
2023/04/29 08:34:49;;;;;;;9.35;5.72;;;21.40;63.20;;;;;;4888146;28;87778;-92
2023/04/29 08:37:15;;;;;;;9.13;5.70;;;21.40;63.20;;;;;;4927356;28;91037;-91
2023/04/29 08:39:45;;;;;;;8.93;5.63;;;21.30;63.60;;;;;;4910958;28;88411;-92
2023/04/29 08:42:11;;;;;;;14.27;5.32;;;21.30;63.70;;;;;;4910518;28;86963;-92
2023/04/29 08:44:39;;;;;;;8.90;5.50;;;21.30;63.80;;;;;;4916748;28;90367;-91
2023/04/29 08:47:06;;;;;;;8.50;5.22;;;21.30;63.90;;;;;;4880772;28;90385;-88
2023/04/29 08:49:32;;;;;;;15.35;5.97;;;21.30;63.60;;;;;;4882871;28;87386;-90
2023/04/29 08:51:59;;;;;;;10.60;6.45;;;21.30;63.00;;;;;;4881382;28;88140;-89
2023/04/29 08:54:27;;;;;;;12.85;6.97;;;21.30;63.20;;;;;;4881009;28;90985;-92
2023/04/29 08:56:56;;;;;;;15.50;8.35;;;21.40;62.80;;;;;;4881834;28;88154;-88
2023/04/29 08:59:24;;;;;;;11.75;7.72;;;21.40;62.00;;;;;;4881573;28;87437;-91
2023/04/29 09:01:52;;;;;;;12.57;6.30;;;21.40;61.90;;;;;;4891400;28;92012;-92
2023/04/29 09:04:35;;;;;;;9.13;6.20;;;21.50;61.80;;;;;;4902874;28;92245;-89
2023/04/29 09:07:03;;;;;;;11.13;5.93;;;21.50;62.00;;;;;;4900025;28;96057;-89
2023/04/29 09:09:29;;;;;;;8.90;5.47;;;21.50;62.30;;;;;;4883233;28;87385;-87
2023/04/29 09:11:55;;;;;;;12.45;5.97;;;21.60;62.30;;;;;;4881868;28;87438;-87
2023/04/29 09:14:23;;;;;;;13.45;6.03;;;21.50;62.60;;;;;;4879919;28;89202;-89
2023/04/29 09:16:48;;;;;;;8.98;6.22;;;21.50;62.60;;;;;;4880988;28;88756;-89
2023/04/29 09:19:35;;;;;;;15.27;6.03;;;21.50;62.70;;;;;;4881068;28;87274;-89
2023/04/29 09:22:02;;;;;;;8.75;5.72;;;21.50;62.40;;;;;;4909149;28;91893;-86
2023/04/29 09:24:29;;;;;;;14.07;7.35;;;21.50;62.60;;;;;;4884140;28;88702;-91
2023/04/29 09:26:56;;;;;;;10.82;6.90;;;21.40;62.10;;;;;;4881623;28;88273;-89
2023/04/29 09:29:21;;;;;;;18.27;8.25;;;21.40;61.80;;;;;;4880872;28;88331;-88
2023/04/29 09:31:48;;;;;;;73.40;21.95;;;21.30;61.70;;;;;;4880704;28;87867;-88
2023/04/29 09:34:14;;;;;;;33.28;11.90;;;21.30;61.40;;;;;;4881175;28;87242;-90
2023/04/29 09:36:48;;;;;;;45.17;15.50;;;21.50;59.10;;;;;;4879379;28;90714;-89
2023/04/29 09:39:19;;;;;;;51.42;16.38;;;21.50;60.20;;;;;;4880230;28;86844;-89
2023/04/29 09:41:53;;;;;;;45.92;16.08;;;21.50;60.60;;;;;;4891380;28;94331;-88
2023/04/29 09:44:23;;;;;;;44.35;14.75;;;21.60;60.30;;;;;;4898774;28;88792;-90
2023/04/29 09:46:54;;;;;;;;;;;21.60;59.90;;;;;;4899826;28;88584;-89
2023/04/29 09:49:24;;;;;;;36.70;13.32;;;21.80;59.70;;;;;;4907146;28;87373;-89
2023/04/29 09:51:58;;;;;;;29.98;12.18;;;21.90;60.00;;;;;;4899863;28;87753;-90
2023/04/29 09:54:27;;;;;;;37.45;11.90;;;22.10;60.40;;;;;;4897043;28;93568;-92
2023/04/29 09:56:53;;;;;;;32.65;12.52;;;22.20;60.40;;;;;;4898434;28;90121;-89
2023/04/29 09:59:19;;;;;;;29.23;11.77;;;22.30;60.60;;;;;;4896765;28;87448;-92
2023/04/29 10:01:48;;;;;;;32.45;12.27;;;22.30;60.60;;;;;;4907764;28;90736;-91
2023/04/29 10:04:15;;;;;;;27.48;12.23;;;22.40;60.70;;;;;;4898796;28;91506;-92
2023/04/29 10:06:43;;;;;;;32.60;13.20;;;22.40;60.90;;;;;;4908490;28;90860;-91
2023/04/29 10:09:14;;;;;;;31.08;12.98;;;22.40;61.30;;;;;;4907799;28;87419;-88
2023/04/29 10:11:41;;;;;;;35.75;12.25;;;22.40;62.30;;;;;;4907616;28;87090;-90
2023/04/29 10:14:12;;;;;;;30.35;11.32;;;22.30;61.70;;;;;;4906692;28;90331;-89
2023/04/29 10:16:46;;;;;;;34.88;12.20;;;22.30;62.10;;;;;;4904356;28;89408;-89
2023/04/29 10:19:17;;;;;;;29.70;12.85;;;22.30;62.30;;;;;;4894706;28;88270;-89
2023/04/29 10:21:43;;;;;;;31.38;12.90;;;22.30;62.60;;;;;;4911023;28;89075;-90
2023/04/29 10:24:12;;;;;;;33.13;12.00;;;22.20;62.80;;;;;;4879010;28;90114;-91
2023/04/29 10:26:38;;;;;;;26.40;11.63;;;22.20;63.10;;;;;;4878489;28;90144;-91
2023/04/29 10:29:07;;;;;;;35.63;13.60;;;22.10;62.90;;;;;;4910978;28;87595;-91
2023/04/29 10:31:34;;;;;;;36.38;12.10;;;22.20;62.10;;;;;;4877121;28;89105;-91
2023/04/29 10:34:00;;;;;;;29.38;12.27;;;22.20;62.50;;;;;;4878720;28;91044;-92
2023/04/29 10:36:30;;;;;;;31.85;12.07;;;22.10;62.80;;;;;;4897634;28;91448;-94
2023/04/29 10:38:58;;;;;;;32.25;11.50;;;22.10;62.80;;;;;;4880458;28;87466;-90
2023/04/29 10:41:27;;;;;;;27.03;10.47;;;22.00;62.80;;;;;;4911364;28;90390;-91
2023/04/29 10:43:54;;;;;;;26.73;9.95;;;22.00;62.30;;;;;;4888943;28;91703;-90
2023/04/29 10:46:27;;;;;;;26.05;10.13;;;22.00;62.00;;;;;;4879765;28;92341;-89
2023/04/29 10:49:05;;;;;;;28.17;10.32;;;22.10;61.90;;;;;;4881491;28;87555;-89
2023/04/29 10:51:32;;;;;;;21.90;8.85;;;22.20;61.60;;;;;;4879112;28;90504;-87
2023/04/29 10:54:02;;;;;;;23.20;9.63;;;22.40;60.70;;;;;;4911059;28;91848;-88
2023/04/29 10:56:36;;;;;;;24.13;10.10;;;22.40;60.70;;;;;;4880808;28;87496;-87
2023/04/29 10:59:02;;;;;;;29.13;10.35;;;22.60;61.40;;;;;;4880974;28;87326;-94
2023/04/29 11:01:45;;;;;;;25.40;9.43;;;22.60;61.80;;;;;;4897109;28;87982;-90
2023/04/29 11:04:11;;;;;;;21.88;9.95;;;22.70;62.30;;;;;;4890977;28;90506;-91
2023/04/29 11:06:41;;;;;;;22.23;9.15;;;22.70;62.90;;;;;;4898714;28;90281;-91
2023/04/29 11:09:11;;;;;;;26.85;10.98;;;22.80;62.90;;;;;;4911609;28;88262;-91
2023/04/29 11:11:42;;;;;;;23.90;9.40;;;22.80;63.00;;;;;;4896481;28;89018;-88
2023/04/29 11:14:12;;;;;;;26.17;10.77;;;22.80;63.00;;;;;;4881194;28;87802;-90
2023/04/29 11:16:48;;;;;;;27.35;10.50;;;22.80;63.30;;;;;;4880484;28;88252;-90
2023/04/29 11:19:16;;;;;;;19.20;9.57;;;22.80;63.30;;;;;;4894406;28;86920;-89
2023/04/29 11:21:44;;;;;;;27.52;9.82;;;22.80;63.80;;;;;;4894909;28;89254;-88
2023/04/29 11:24:11;;;;;;;22.45;8.85;;;22.80;63.90;;;;;;4882353;28;88615;-89
2023/04/29 11:26:37;;;;;;;25.55;10.88;;;22.80;63.30;;;;;;4872440;28;90251;-88
2023/04/29 11:29:04;;;;;;;24.05;10.27;;;22.80;63.60;;;;;;4882148;28;86992;-90
2023/04/29 11:31:31;;;;;;;30.92;9.85;;;22.70;63.60;;;;;;4881865;28;89368;-91
2023/04/29 11:33:57;;;;;;;17.63;9.00;;;22.70;63.90;;;;;;4881781;28;92407;-90
2023/04/29 11:36:23;;;;;;;19.90;8.50;;;22.60;64.00;;;;;;4882588;28;89428;-91
2023/04/29 11:38:49;;;;;;;18.77;9.25;;;22.60;60.10;;;;;;4897521;28;87944;-90
2023/04/29 11:41:15;;;;;;;20.77;9.45;;;22.60;61.90;;;;;;4896758;28;89013;-94
2023/04/29 11:43:42;;;;;;;24.58;9.68;;;22.60;62.60;;;;;;4897391;28;90735;-90
2023/04/29 11:46:15;;;;;;;20.50;9.85;;;22.60;63.10;;;;;;4885639;28;89852;-92
2023/04/29 11:48:48;;;;;;;21.85;9.88;;;22.50;63.40;;;;;;4885245;28;87442;-91
2023/04/29 11:51:16;;;;;;;26.08;9.85;;;22.50;63.20;;;;;;4885105;28;90050;-91
2023/04/29 11:53:43;;;;;;;25.67;9.95;;;22.50;62.90;;;;;;4900985;28;89755;-93
2023/04/29 11:56:10;;;;;;;23.20;10.43;;;22.40;63.30;;;;;;4903269;28;90337;-91
2023/04/29 11:58:36;;;;;;;19.33;9.48;;;22.40;63.90;;;;;;4884365;28;88260;-91
2023/04/29 12:01:03;;;;;;;20.33;9.65;;;22.40;63.90;;;;;;4888518;28;86950;-90
2023/04/29 12:03:31;;;;;;;23.55;9.82;;;22.40;64.00;;;;;;4888085;28;91730;-92
2023/04/29 12:05:57;;;;;;;28.42;9.48;;;22.40;64.40;;;;;;4883900;28;89859;-92
2023/04/29 12:08:29;;;;;;;20.95;9.48;;;22.40;64.40;;;;;;4883503;28;87443;-92
2023/04/29 12:10:57;;;;;;;26.77;10.23;;;22.40;63.00;;;;;;4882451;28;90234;-94
2023/04/29 12:13:28;;;;;;;22.45;9.35;;;22.40;63.80;;;;;;4883079;28;87701;-91
2023/04/29 12:15:55;;;;;;;22.50;9.82;;;22.40;64.30;;;;;;4874398;28;89213;-93
2023/04/29 12:18:22;;;;;;;17.83;8.35;;;22.50;64.10;;;;;;4883333;28;86983;-92
2023/04/29 12:20:50;;;;;;;18.33;8.65;;;22.60;64.00;;;;;;4882400;28;90569;-92
2023/04/29 12:23:25;;;;;;;20.50;8.52;;;22.70;63.90;;;;;;4898067;28;92087;-93
2023/04/29 12:25:56;;;;;;;25.55;8.90;;;22.60;64.60;;;;;;4884676;28;89298;-92
2023/04/29 12:28:22;;;;;;;15.98;9.10;;;22.70;63.80;;;;;;4915482;28;87579;-92
2023/04/29 12:30:50;;;;;;;21.80;9.43;;;22.70;64.00;;;;;;4883800;28;89108;-91
2023/04/29 12:33:26;;;;;;;27.80;9.48;;;22.80;64.00;;;;;;4880665;28;91142;-93
2023/04/29 12:35:57;;;;;;;21.92;9.38;;;22.80;64.00;;;;;;4889327;28;91155;-93
2023/04/29 12:38:28;;;;;;;24.73;9.68;;;22.80;64.10;;;;;;4895130;28;87015;-93
2023/04/29 12:40:55;;;;;;;26.20;9.77;;;22.80;63.80;;;;;;4876700;28;90463;-93
2023/04/29 12:43:28;;;;;;;25.98;9.43;;;22.90;64.20;;;;;;4899128;28;90341;-93
2023/04/29 12:46:01;;;;;;;22.45;8.25;;;22.80;64.00;;;;;;4883043;28;88820;-93